Time;durP1;ratioP1;P1;durP2;ratioP2;P2;SDS_P1;SDS_P2;PMS_P1;PMS_P2;Temp;Humidity;BMP_temperature;BMP_pressure;BME280_temperature;BME280_humidity;BME280_pressure;Samples;Min_cycle;Max_cycle;Signal;HPM_P1;HPM_P2
2022/01/21 00:00:59;;;;;;;;;9.00;6.00;;;;;4.37;74.61;103407.13;5117665;27;45302;-66
2022/01/21 00:03:26;;;;;;;;;12.33;7.33;;;;;4.31;75.38;103407.25;5116336;27;45450;-66
2022/01/21 00:05:51;;;;;;;;;6.00;6.00;;;;;4.32;75.50;103414.41;5118554;27;45475;-66
2022/01/21 00:08:17;;;;;;;;;7.00;5.33;;;;;4.23;75.43;103409.31;5117782;27;45381;-66
2022/01/21 00:10:42;;;;;;;;;9.00;6.33;;;;;4.25;75.96;103413.72;5120059;27;45471;-66
2022/01/21 00:13:17;;;;;;;;;8.67;6.00;;;;;4.26;75.22;103414.59;5114919;27;45387;-66
2022/01/21 00:15:42;;;;;;;;;6.33;6.00;;;;;4.28;75.67;103402.88;5116087;27;45309;-66
2022/01/21 00:18:09;;;;;;;;;10.67;7.00;;;;;4.31;75.30;103415.34;5113265;27;45296;-66
2022/01/21 00:31:30;;;;;;;;;9.33;9.00;;;;;3.95;76.43;103387.66;5112169;27;45379;-66
2022/01/21 00:33:56;;;;;;;;;6.33;6.33;;;;;3.96;76.83;103393.91;5102927;27;46302;-66
2022/01/21 00:36:21;;;;;;;;;13.00;9.67;;;;;3.85;76.66;103387.03;5105934;27;45401;-68
2022/01/21 00:38:46;;;;;;;;;11.00;9.00;;;;;3.85;77.21;103384.34;5098264;27;45423;-66
2022/01/21 00:41:17;;;;;;;;;16.67;13.33;;;;;3.91;77.18;103391.34;5104609;27;45489;-66
2022/01/21 00:43:45;;;;;;;;;10.67;10.00;;;;;3.90;77.22;103390.47;5126613;27;47363;-67
2022/01/21 00:46:13;;;;;;;;;15.33;13.67;;;;;3.84;77.63;103381.69;5104922;27;45324;-67
2022/01/21 00:48:39;;;;;;;;;12.67;10.33;;;;;3.90;77.56;103385.09;5097951;27;45463;-67
2022/01/21 00:51:05;;;;;;;;;15.33;11.00;;;;;3.96;76.74;103391.22;5106130;27;45259;-67
2022/01/21 00:53:31;;;;;;;;;6.33;6.00;;;;;3.90;77.00;103387.78;5099662;27;46150;-66
2022/01/21 00:55:56;;;;;;;;;17.00;14.00;;;;;3.98;76.96;103386.69;5104542;27;45398;-67
2022/01/21 00:58:22;;;;;;;;;11.67;10.00;;;;;4.01;77.01;103387.50;5096643;27;45451;-65
2022/01/21 01:00:47;;;;;;;;;14.00;10.00;;;;;4.05;76.72;103394.56;5105120;27;45258;-65
2022/01/21 01:03:14;;;;;;;;;14.00;11.33;;;;;4.04;76.70;103382.03;5101643;27;45479;-65
2022/01/21 01:05:40;;;;;;;;;10.33;10.33;;;;;3.96;76.92;103393.91;5103668;27;45364;-65
2022/01/21 01:08:05;;;;;;;;;14.00;9.00;;;;;3.87;77.18;103385.16;5103137;27;45469;-66
2022/01/21 01:21:17;;;;;;;;;10.33;8.67;;;;;3.80;77.82;103383.56;5093076;27;45422;-65
2022/01/21 01:29:20;;;;;;;;;12.00;9.33;;;;;3.64;78.52;103381.34;5105784;27;45249;-65
2022/01/21 01:31:46;;;;;;;;;10.00;9.00;;;;;3.62;77.84;103388.56;5105638;27;45230;-66
2022/01/21 01:34:13;;;;;;;;;8.00;8.00;;;;;3.56;78.34;103380.66;5097161;27;46671;-65
2022/01/21 01:36:41;;;;;;;;;10.33;8.00;;;;;3.52;78.31;103390.59;5105007;27;45259;-65
2022/01/21 01:39:14;;;;;;;;;16.00;12.00;;;;;3.52;78.53;103377.13;5095762;27;45461;-65
2022/01/21 01:41:54;;;;;;;;;8.67;8.67;;;;;3.55;78.49;103382.47;5105662;27;45350;-65
2022/01/21 01:49:48;;;;;;;;;13.67;8.67;;;;;3.51;78.41;103375.38;5101225;27;45409;-65
2022/01/21 01:52:17;;;;;;;;;8.00;8.00;;;;;3.53;78.59;103389.66;5103015;27;45522;-65
2022/01/21 01:54:50;;;;;;;;;9.00;6.00;;;;;3.51;78.18;103396.88;5096075;27;47273;-65
2022/01/21 01:57:16;;;;;;;;;12.67;7.67;;;;;3.53;78.41;103395.94;5102174;27;45627;-66
2022/01/21 01:59:41;;;;;;;;;9.67;8.33;;;;;3.46;78.17;103398.81;5098493;27;45177;-66
2022/01/21 02:02:11;;;;;;;;;8.00;8.00;;;;;3.42;78.68;103394.44;5101860;27;45477;-66
2022/01/21 02:04:38;;;;;;;;;12.33;8.00;;;;;3.47;78.97;103400.56;5103280;27;48103;-66
2022/01/21 02:07:04;;;;;;;;;9.00;5.33;;;;;3.44;78.70;103396.16;5102208;27;45311;-65
2022/01/21 02:09:29;;;;;;;;;10.00;10.00;;;;;3.36;78.41;103397.28;5097671;27;45311;-66
2022/01/21 02:11:55;;;;;;;;;11.00;9.00;;;;;3.40;78.76;103410.59;5102928;27;45333;-65
2022/01/21 02:14:26;;;;;;;;;7.33;7.33;;;;;3.40;79.20;103407.91;5094722;27;45320;-66
2022/01/21 02:22:12;;;;;;;;;5.33;4.00;;;;;3.23;79.35;103393.09;5102491;27;45495;-66
2022/01/21 02:27:12;;;;;;;;;18.33;10.00;;;;;3.24;79.20;103395.75;5101865;27;45379;-66
2022/01/21 02:29:46;;;;;;;;;9.00;8.00;;;;;3.23;79.44;103395.78;5107566;27;45534;-65
2022/01/21 02:32:11;;;;;;;;;13.00;9.67;;;;;3.17;79.13;103393.25;5102751;27;46043;-66
2022/01/21 02:34:37;;;;;;;;;11.33;9.00;;;;;3.18;79.41;103398.59;5102758;27;46275;-66
2022/01/21 02:37:03;;;;;;;;;9.67;9.67;;;;;3.14;79.77;103399.59;5101630;27;45270;-66
2022/01/21 02:39:28;;;;;;;;;8.67;6.67;;;;;3.06;79.74;103393.53;5099929;27;45495;-66
2022/01/21 02:41:55;;;;;;;;;9.00;8.00;;;;;3.06;80.07;103397.09;5103698;27;45231;-66
2022/01/21 02:44:21;;;;;;;;;12.33;8.00;;;;;3.14;79.68;103400.47;5101566;27;47285;-66
2022/01/21 02:46:48;;;;;;;;;14.33;9.33;;;;;3.10;79.84;103388.03;5104007;27;45267;-65
2022/01/21 02:49:15;;;;;;;;;14.00;10.00;;;;;3.13;79.80;103390.66;5097833;27;45404;-66
2022/01/21 02:51:40;;;;;;;;;12.33;12.00;;;;;3.11;79.57;103394.28;5104229;27;45400;-66
2022/01/21 02:54:06;;;;;;;;;11.00;10.33;;;;;3.08;79.83;103392.56;5095498;27;46452;-66
2022/01/21 02:56:37;;;;;;;;;15.33;9.33;;;;;3.08;80.00;103397.94;5100068;27;45367;-66
2022/01/21 02:59:05;;;;;;;;;14.67;9.33;;;;;3.05;79.83;103406.06;5097637;27;48066;-66
2022/01/21 03:01:33;;;;;;;;;13.67;8.00;;;;;3.10;79.55;103396.09;5102405;27;45340;-66
2022/01/21 03:03:59;;;;;;;;;12.33;8.67;;;;;3.04;79.65;103412.34;5094952;27;48096;-66
2022/01/21 03:06:24;;;;;;;;;9.67;9.67;;;;;3.04;79.97;103401.63;5101224;27;45735;-65
2022/01/21 03:08:52;;;;;;;;;11.00;6.67;;;;;3.06;79.89;103398.91;5101198;27;45382;-66
2022/01/21 03:11:19;;;;;;;;;8.00;6.00;;;;;3.03;79.82;103394.47;5103680;27;45229;-65
2022/01/21 03:13:45;;;;;;;;;10.67;9.00;;;;;2.96;79.69;103387.47;5092386;27;47353;-65
2022/01/21 03:16:11;;;;;;;;;10.67;9.33;;;;;2.93;80.33;103394.69;5101285;27;45629;-66
2022/01/21 03:18:36;;;;;;;;;12.00;7.33;;;;;2.85;80.41;103399.38;5095094;27;45346;-65
2022/01/21 03:21:02;;;;;;;;;20.33;11.33;;;;;2.93;80.31;103408.13;5102569;27;45398;-65
2022/01/21 03:23:29;;;;;;;;;12.00;11.00;;;;;2.99;80.23;103405.34;5096775;27;45423;-65
2022/01/21 03:25:54;;;;;;;;;12.33;12.33;;;;;2.95;80.13;103403.63;5091889;27;45523;-65
2022/01/21 03:28:20;;;;;;;;;12.00;8.67;;;;;2.96;79.92;103408.06;5095689;27;45391;-65
2022/01/21 03:30:45;;;;;;;;;9.00;9.00;;;;;2.96;80.30;103408.97;5097958;27;45348;-65
2022/01/21 03:33:11;;;;;;;;;12.00;10.00;;;;;2.94;79.96;103402.72;5092213;27;45607;-64
2022/01/21 03:35:36;;;;;;;;;11.67;9.00;;;;;2.93;80.19;103416.19;5096516;27;45361;-64
2022/01/21 03:38:02;;;;;;;;;11.00;9.00;;;;;2.95;80.06;103423.31;5103355;27;45365;-65
2022/01/21 03:40:28;;;;;;;;;13.00;11.67;;;;;2.92;79.77;103417.97;5101875;27;45530;-65
2022/01/21 03:42:53;;;;;;;;;13.33;11.33;;;;;3.02;80.01;103413.31;5097552;27;48080;-65
2022/01/21 03:45:19;;;;;;;;;17.00;9.00;;;;;2.91;80.10;103424.31;5103328;27;45417;-65
2022/01/21 03:47:44;;;;;;;;;10.00;8.33;;;;;3.03;80.02;103425.81;5093505;27;45313;-66
2022/01/21 03:52:55;;;;;;;;;17.33;12.00;;;;;3.08;80.01;103416.72;5090742;27;45286;-65
2022/01/21 03:55:21;;;;;;;;;15.33;13.00;;;;;3.12;79.78;103410.38;5097319;27;45357;-66
2022/01/21 03:57:46;;;;;;;;;12.00;12.00;;;;;3.06;79.73;103404.28;5091138;27;45352;-66
2022/01/21 04:00:19;;;;;;;;;16.67;12.67;;;;;3.05;80.21;103411.44;5100137;27;45326;-66
2022/01/21 04:02:45;;;;;;;;;17.33;11.67;;;;;3.05;79.72;103408.75;5098635;27;45463;-66
2022/01/21 04:05:11;;;;;;;;;14.00;12.67;;;;;3.08;80.28;103411.34;5099901;27;45418;-66
2022/01/21 04:07:36;;;;;;;;;9.00;9.00;;;;;3.03;80.19;103404.31;5099653;27;45574;-66
2022/01/21 04:10:04;;;;;;;;;10.67;10.67;;;;;3.09;80.16;103413.13;5105644;27;45383;-66
2022/01/21 04:12:29;;;;;;;;;12.00;12.00;;;;;3.12;79.71;103421.13;5104158;27;45690;-66
2022/01/21 04:14:56;;;;;;;;;15.00;9.00;;;;;3.13;79.84;103422.00;5103890;27;45305;-66
2022/01/21 04:17:23;;;;;;;;;18.67;14.67;;;;;3.20;79.59;103417.38;5103975;27;45324;-66
2022/01/21 04:19:48;;;;;;;;;13.00;11.00;;;;;3.18;79.85;103424.56;5098807;27;45451;-66
2022/01/21 04:22:13;;;;;;;;;15.33;11.00;;;;;3.13;79.99;103412.16;5103620;27;45605;-66
2022/01/21 04:24:40;;;;;;;;;14.67;12.67;;;;;3.12;79.92;103431.88;5101883;27;45359;-66
2022/01/21 04:27:05;;;;;;;;;12.33;8.33;;;;;3.13;80.00;103433.66;5103120;27;45336;-66
2022/01/21 04:29:30;;;;;;;;;8.00;8.00;;;;;3.04;79.68;103428.47;5110631;27;45453;-66
2022/01/21 04:31:56;;;;;;;;;9.33;8.00;;;;;2.99;80.25;103422.34;5105059;27;46644;-66
2022/01/21 04:34:21;;;;;;;;;12.00;8.00;;;;;3.03;80.40;103434.75;5100440;27;45344;-66
2022/01/21 04:36:46;;;;;;;;;10.67;9.33;;;;;3.02;79.85;103435.66;5105972;27;45348;-66
2022/01/21 04:39:19;;;;;;;;;20.67;9.33;;;;;3.02;79.87;103430.31;5099755;27;45950;-67
2022/01/21 04:49:40;;;;;;;;;13.67;11.00;;;;;3.06;80.47;103429.31;5101876;27;45479;-66
2022/01/21 04:52:06;;;;;;;;;20.33;11.33;;;;;3.05;80.40;103421.31;5102046;27;48642;-66
2022/01/21 04:54:33;;;;;;;;;16.00;11.67;;;;;3.16;80.33;103410.28;5103695;27;45464;-66
2022/01/21 04:57:01;;;;;;;;;10.33;9.00;;;;;3.18;80.25;103424.56;5104700;27;45379;-66
2022/01/21 04:59:26;;;;;;;;;12.33;8.00;;;;;3.14;80.37;103424.63;5098962;27;45395;-66
2022/01/21 05:01:52;;;;;;;;;20.00;8.33;;;;;3.22;80.22;103427.16;5104845;27;45392;-66
2022/01/21 05:04:19;;;;;;;;;16.67;12.67;;;;;3.30;80.24;103446.66;5100741;27;45435;-66
2022/01/21 05:06:45;;;;;;;;;12.67;9.67;;;;;3.35;79.77;103433.13;5105590;27;45833;-66
2022/01/21 05:09:10;;;;;;;;;15.67;14.33;;;;;3.37;79.54;103429.47;5099013;27;45367;-66
2022/01/21 05:11:38;;;;;;;;;13.33;12.00;;;;;3.33;79.90;103438.53;5105783;27;45559;-66
2022/01/21 05:14:17;;;;;;;;;9.33;7.33;;;;;3.22;79.48;103440.56;5094004;27;45447;-66
2022/01/21 05:16:50;;;;;;;;;12.33;10.00;;;;;3.24;80.05;103429.81;5105554;27;45265;-68
2022/01/21 05:19:18;;;;;;;;;16.00;13.00;;;;;3.35;79.39;103438.50;5095341;27;45358;-66
2022/01/21 05:21:50;;;;;;;;;11.33;9.33;;;;;3.31;78.99;103437.69;5103351;27;47402;-65
2022/01/21 05:24:19;;;;;;;;;16.00;12.00;;;;;3.46;79.48;103441.81;5097595;27;45218;-66
2022/01/21 05:26:52;;;;;;;;;13.00;8.33;;;;;3.57;78.96;103439.75;5104153;27;45337;-66
2022/01/21 05:29:20;;;;;;;;;10.33;9.67;;;;;3.61;78.83;103449.50;5107147;27;45683;-66
2022/01/21 05:31:47;;;;;;;;;12.33;9.67;;;;;3.58;78.90;103446.88;5105185;27;45312;-66
2022/01/21 05:34:12;;;;;;;;;14.00;11.67;;;;;3.60;79.02;103450.41;5098408;27;45319;-66
2022/01/21 05:36:40;;;;;;;;;14.33;9.00;;;;;3.59;78.97;103442.38;5103639;27;45424;-66
2022/01/21 05:39:06;;;;;;;;;12.33;9.33;;;;;3.60;78.23;103434.28;5098772;27;45506;-66
2022/01/21 05:41:32;;;;;;;;;17.33;11.67;;;;;3.61;78.18;103445.91;5104851;27;45340;-66
2022/01/21 05:44:13;;;;;;;;;8.00;8.00;;;;;3.58;78.25;103446.88;5098032;27;45397;-66
2022/01/21 05:49:07;;;;;;;;;12.67;8.67;;;;;3.57;78.72;103453.19;5098414;27;45518;-66
2022/01/21 05:51:32;;;;;;;;;19.00;10.33;;;;;3.51;78.51;103448.81;5104292;27;46711;-66
2022/01/21 05:53:57;;;;;;;;;14.67;12.33;;;;;3.57;78.21;103446.94;5098313;27;45314;-66
2022/01/21 05:56:25;;;;;;;;;8.67;8.67;;;;;3.55;78.40;103438.91;5099533;27;45593;-66
2022/01/21 05:58:51;;;;;;;;;16.00;9.00;;;;;3.48;78.77;103439.97;5095252;27;45455;-66
2022/01/21 06:01:17;;;;;;;;;13.00;9.00;;;;;3.46;78.47;103456.13;5099755;27;45277;-66
2022/01/21 06:03:42;;;;;;;;;18.67;16.00;;;;;3.41;78.55;103457.16;5100484;27;45317;-65
2022/01/21 06:06:09;;;;;;;;;15.67;13.33;;;;;3.38;78.81;103465.28;5103361;27;45231;-66
2022/01/21 06:08:36;;;;;;;;;14.00;11.33;;;;;3.39;78.93;103472.44;5102595;27;45187;-66
2022/01/21 06:11:01;;;;;;;;;19.33;10.67;;;;;3.43;78.81;103463.41;5103573;27;45270;-66
2022/01/21 06:13:27;;;;;;;;;16.33;12.33;;;;;3.35;79.11;103468.06;5097417;27;45173;-66
2022/01/21 06:15:54;;;;;;;;;12.00;7.33;;;;;3.35;78.71;103458.22;5102628;27;45239;-66
2022/01/21 06:18:20;;;;;;;;;7.67;5.33;;;;;3.45;78.98;103466.91;5098664;27;45494;-68
2022/01/21 06:20:45;;;;;;;;;16.33;13.67;;;;;3.41;78.86;103471.50;5099826;27;46273;-67
2022/01/21 06:23:10;;;;;;;;;8.67;8.00;;;;;3.48;79.00;103467.75;5096299;27;45858;-66
2022/01/21 06:25:36;;;;;;;;;6.00;6.00;;;;;3.48;78.69;103473.13;5104210;27;45310;-66
2022/01/21 06:28:01;;;;;;;;;15.67;11.00;;;;;3.53;78.53;103467.63;5101274;27;45381;-66
2022/01/21 06:30:27;;;;;;;;;9.33;9.33;;;;;3.68;78.41;103469.94;5099933;27;46095;-66
2022/01/21 06:32:52;;;;;;;;;9.00;9.00;;;;;3.75;77.79;103470.66;5097113;27;45410;-66
2022/01/21 06:35:18;;;;;;;;;16.00;12.00;;;;;3.76;77.69;103470.63;5103163;27;45471;-66
2022/01/21 06:37:43;;;;;;;;;16.00;12.00;;;;;3.77;77.97;103467.03;5096461;27;45504;-66
2022/01/21 06:40:09;;;;;;;;;16.00;12.00;;;;;3.75;77.88;103466.16;5100542;27;46960;-66
2022/01/21 06:42:36;;;;;;;;;16.67;11.33;;;;;3.76;77.51;103481.38;5099738;27;45368;-66
2022/01/21 06:45:02;;;;;;;;;15.67;13.33;;;;;3.70;77.43;103480.66;5101190;27;45258;-66
2022/01/21 06:47:29;;;;;;;;;13.33;9.67;;;;;3.73;77.97;103488.63;5099864;27;45568;-66
2022/01/21 06:49:54;;;;;;;;;12.67;10.67;;;;;3.66;77.78;103490.59;5097229;27;47486;-66
2022/01/21 06:52:21;;;;;;;;;12.33;9.67;;;;;3.70;77.70;103488.72;5099066;27;45456;-66
2022/01/21 06:54:47;;;;;;;;;15.33;11.33;;;;;3.67;77.98;103483.41;5095793;27;45273;-66
2022/01/21 06:57:13;;;;;;;;;18.67;13.00;;;;;3.73;78.00;103489.50;5101295;27;45482;-66
2022/01/21 06:59:38;;;;;;;;;18.67;14.00;;;;;3.76;78.04;103494.81;5100906;27;47416;-66
2022/01/21 07:02:04;;;;;;;;;11.33;9.67;;;;;3.80;77.76;103496.50;5101863;27;45210;-66
2022/01/21 07:04:29;;;;;;;;;18.67;12.00;;;;;3.83;77.20;103498.25;5100110;27;45452;-66
2022/01/21 07:06:57;;;;;;;;;11.67;11.00;;;;;3.82;77.35;103488.41;5102529;27;45488;-66
2022/01/21 07:09:23;;;;;;;;;8.00;8.00;;;;;3.83;77.34;103493.75;5100855;27;47301;-66
2022/01/21 07:11:48;;;;;;;;;14.67;11.00;;;;;3.87;77.56;103494.56;5101024;27;45235;-66
2022/01/21 07:14:14;;;;;;;;;18.67;13.33;;;;;3.83;77.33;103496.44;5092327;27;45398;-67
2022/01/21 07:16:39;;;;;;;;;11.67;10.00;;;;;3.85;77.51;103501.78;5102558;27;45475;-66
2022/01/21 07:19:04;;;;;;;;;16.67;10.00;;;;;3.90;77.89;103510.63;5090966;27;46844;-66
2022/01/21 07:21:30;;;;;;;;;9.00;9.00;;;;;3.97;77.32;103514.03;5101715;27;45403;-66
2022/01/21 07:23:55;;;;;;;;;11.33;7.67;;;;;4.00;77.40;103513.97;5096115;27;45664;-66
2022/01/21 07:26:21;;;;;;;;;20.00;16.00;;;;;4.04;76.81;103515.66;5102579;27;45298;-66
2022/01/21 07:28:46;;;;;;;;;14.00;9.33;;;;;4.05;77.16;103512.94;5094731;27;45744;-66
2022/01/21 07:31:11;;;;;;;;;18.33;10.67;;;;;4.13;76.67;103518.09;5100731;27;45441;-67
2022/01/21 07:33:38;;;;;;;;;14.00;12.00;;;;;4.18;76.41;103524.25;5095245;27;45422;-67
2022/01/21 07:36:04;;;;;;;;;17.67;13.00;;;;;4.15;76.29;103513.59;5101732;27;45354;-66
2022/01/21 07:38:30;;;;;;;;;10.67;9.00;;;;;4.12;76.35;103516.34;5091530;27;46586;-66
2022/01/21 07:40:55;;;;;;;;;16.00;9.67;;;;;4.14;76.43;103528.84;5100463;27;45336;-66
2022/01/21 07:43:21;;;;;;;;;13.00;11.33;;;;;4.04;76.68;103532.66;5095823;27;45384;-66
2022/01/21 07:45:46;;;;;;;;;12.33;8.67;;;;;3.86;77.08;103533.16;5105699;27;45634;-66
2022/01/21 07:48:11;;;;;;;;;17.67;8.33;;;;;3.80;77.54;103536.84;5098502;27;45443;-68
2022/01/21 07:50:38;;;;;;;;;16.33;12.67;;;;;3.89;77.68;103536.63;5105316;27;45194;-67
2022/01/21 07:53:04;;;;;;;;;12.33;10.33;;;;;3.94;77.40;103536.53;5098470;27;45804;-66
2022/01/21 07:55:29;;;;;;;;;13.67;12.00;;;;;3.89;77.04;103539.31;5101491;27;45438;-66
2022/01/21 07:57:55;;;;;;;;;13.00;9.00;;;;;3.82;77.32;103536.81;5099745;27;45669;-66
2022/01/21 08:00:20;;;;;;;;;15.33;13.00;;;;;3.81;77.64;103546.69;5102875;27;45336;-66
2022/01/21 08:02:46;;;;;;;;;11.00;9.00;;;;;4.03;77.56;103546.16;5102022;27;45404;-66
2022/01/21 08:05:11;;;;;;;;;10.00;1.00;;;;;3.98;77.35;103540.91;5105196;27;45470;-66
2022/01/21 08:07:37;;;;;;;;;15.67;14.00;;;;;3.98;77.49;103553.47;5102490;27;46155;-66
2022/01/21 08:10:03;;;;;;;;;22.00;17.00;;;;;3.94;77.71;103549.09;5105353;27;45473;-65
2022/01/21 08:12:29;;;;;;;;;24.67;18.33;;;;;4.00;77.31;103552.53;5104033;27;45422;-66
2022/01/21 08:14:54;;;;;;;;;17.33;11.67;;;;;4.12;76.83;103552.19;5098475;27;45511;-66
2022/01/21 08:17:19;;;;;;;;;14.67;8.67;;;;;4.20;77.07;103557.38;5102465;27;46826;-66
2022/01/21 08:19:45;;;;;;;;;20.67;12.67;;;;;4.16;76.98;103559.28;5098400;27;45243;-66
2022/01/21 08:22:10;;;;;;;;;30.25;23.00;;;;;4.04;76.84;103556.00;5103829;27;45291;-66
2022/01/21 08:24:36;;;;;;;;;15.33;12.00;;;;;4.06;77.46;103556.84;5101305;27;45167;-66
2022/01/21 08:27:01;;;;;;;;;26.33;17.00;;;;;4.16;76.92;103563.78;5104253;27;45558;-66
2022/01/21 08:29:27;;;;;;;;;12.67;12.67;;;;;4.12;77.24;103554.00;5099650;27;45350;-66
2022/01/21 08:31:54;;;;;;;;;28.67;18.00;;;;;4.24;77.19;103559.94;5105197;27;45961;-66
2022/01/21 08:34:19;;;;;;;;;18.67;17.33;;;;;4.22;77.11;103561.81;5100407;27;45540;-67
2022/01/21 08:36:46;;;;;;;;;18.33;15.00;;;;;4.38;76.90;103564.13;5104581;27;46613;-67
2022/01/21 08:39:13;;;;;;;;;20.00;17.67;;;;;4.46;76.40;103565.66;5098743;27;45679;-66
2022/01/21 08:41:39;;;;;;;;;33.00;22.33;;;;;4.54;76.24;103571.72;5104143;27;45503;-67
2022/01/21 08:44:05;;;;;;;;;50.25;31.75;;;;;4.53;76.02;103559.19;5100641;27;45360;-66
2022/01/21 08:46:31;;;;;;;;;66.75;46.25;;;;;4.54;75.77;103566.34;5103960;27;48136;-67
2022/01/21 08:48:56;;;;;;;;;51.50;31.75;;;;;4.65;76.02;103564.25;5098776;27;45606;-68
2022/01/21 08:51:26;;;;;;;;;26.50;22.00;;;;;4.75;75.46;103569.41;5103953;27;45317;-67
2022/01/21 08:53:53;;;;;;;;;41.75;32.00;;;;;4.86;74.99;103565.47;5094883;27;46194;-67
2022/01/21 08:56:19;;;;;;;;;37.25;33.25;;;;;4.88;75.22;103565.44;5114865;27;48332;-67
2022/01/21 08:58:47;;;;;;;;;40.25;33.25;;;;;4.91;75.03;103563.53;5095953;27;45420;-66
2022/01/21 09:01:13;;;;;;;;;26.75;22.50;;;;;4.97;75.25;103567.84;5099552;27;45208;-68
2022/01/21 09:03:40;;;;;;;;;23.67;21.67;;;;;5.05;74.95;103569.41;5102185;27;45589;-67
2022/01/21 09:06:07;;;;;;;;;24.00;21.00;;;;;5.09;74.62;103562.13;5104130;27;46149;-67
2022/01/21 09:08:32;;;;;;;;;25.67;21.67;;;;;5.12;74.36;103564.72;5098296;27;46084;-67
2022/01/21 09:11:03;;;;;;;;;20.67;12.33;;;;;4.97;74.36;103563.34;5100898;27;45440;-67
2022/01/21 09:13:30;;;;;;;;;20.33;15.00;;;;;5.01;74.75;103577.63;5099415;27;45275;-67
2022/01/21 09:15:59;;;;;;;;;19.33;15.00;;;;;4.98;74.91;103577.69;5101929;27;45394;-67
2022/01/21 09:21:15;;;;;;;;;28.33;17.33;;;;;5.24;74.94;103580.53;5103137;27;45276;-68
2022/01/21 09:23:41;;;;;;;;;28.67;27.33;;;;;5.28;74.33;103581.31;5095050;27;45455;-66
2022/01/21 09:26:08;;;;;;;;;35.25;27.75;;;;;5.37;74.47;103581.06;5104808;27;46050;-67
2022/01/21 09:28:33;;;;;;;;;29.00;24.00;;;;;5.24;74.03;103575.16;5098344;27;45350;-66
2022/01/21 09:30:58;;;;;;;;;29.00;25.50;;;;;5.19;73.96;103587.84;5105144;27;45404;-67
2022/01/21 09:33:24;;;;;;;;;36.75;29.50;;;;;5.28;74.31;103576.81;5098896;27;45422;-67
2022/01/21 09:35:49;;;;;;;;;31.00;22.33;;;;;5.25;74.57;103603.00;5104480;27;46491;-67
2022/01/21 09:38:16;;;;;;;;;24.50;20.25;;;;;5.29;74.15;103610.03;5097077;27;45324;-67
2022/01/21 09:40:48;;;;;;;;;22.00;19.00;;;;;5.36;74.00;103604.44;5104916;27;45312;-67
2022/01/21 09:43:15;;;;;;;;;30.67;17.00;;;;;5.47;73.30;103623.88;5100023;27;45490;-67
2022/01/21 09:45:41;;;;;;;;;20.33;20.33;;;;;5.46;73.82;103616.72;5104691;27;45577;-67
2022/01/21 09:48:09;;;;;;;;;17.33;17.33;;;;;5.42;74.42;103617.72;5097731;27;45332;-67
2022/01/21 09:50:35;;;;;;;;;11.67;9.33;;;;;5.14;74.89;103626.66;5103426;27;45480;-67
2022/01/21 09:53:01;;;;;;;;;17.33;14.67;;;;;5.36;75.41;103620.59;5098648;27;45495;-67
2022/01/21 09:55:27;;;;;;;;;21.33;17.00;;;;;5.29;75.22;103621.72;5100706;27;45374;-67
2022/01/21 09:57:55;;;;;;;;;18.33;18.00;;;;;5.24;75.65;103618.28;5099339;27;45325;-67
2022/01/21 10:00:25;;;;;;;;;19.67;19.67;;;;;5.27;75.99;103628.06;5102001;27;45401;-66
2022/01/21 10:02:52;;;;;;;;;24.00;18.33;;;;;5.42;75.50;103633.91;5101507;27;45321;-67
2022/01/21 10:05:19;;;;;;;;;26.33;21.00;;;;;5.45;75.75;103638.34;5103505;27;45514;-67
2022/01/21 10:07:46;;;;;;;;;20.67;13.67;;;;;5.36;75.72;103633.19;5101065;27;45333;-67
2022/01/21 10:10:12;;;;;;;;;15.67;14.00;;;;;5.31;75.60;103630.66;5104111;27;45358;-67
2022/01/21 10:12:39;;;;;;;;;21.67;20.67;;;;;5.40;76.04;103637.59;5102267;27;45468;-67
2022/01/21 10:15:07;;;;;;;;;18.67;13.00;;;;;5.39;75.46;103644.78;5096035;27;45577;-67
2022/01/21 10:17:33;;;;;;;;;21.33;18.33;;;;;5.41;74.97;103634.81;5101695;27;45580;-67
2022/01/21 10:20:20;;;;;;;;;20.33;15.00;;;;;5.53;74.81;103635.41;5096720;27;45507;-68
2022/01/21 10:23:02;;;;;;;;;23.33;20.00;;;;;5.67;74.65;103633.19;5100589;27;45471;-68
2022/01/21 10:25:28;;;;;;;;;20.00;16.00;;;;;5.81;74.13;103626.44;5098913;27;45505;-67
2022/01/21 10:28:17;;;;;;;;;25.00;19.33;;;;;5.96;73.84;103635.91;5096971;27;45397;-67
2022/01/21 10:30:44;;;;;;;;;17.33;11.67;;;;;5.96;73.50;103635.91;5101464;27;45460;-67
2022/01/21 10:33:22;;;;;;;;;16.00;16.00;;;;;6.17;73.10;103640.59;5097416;27;45396;-67
2022/01/21 10:35:51;;;;;;;;;22.67;20.00;;;;;6.16;72.62;103638.84;5095361;27;45908;-67
2022/01/21 10:38:18;;;;;;;;;24.00;19.67;;;;;6.12;72.97;103636.31;5096392;27;45367;-67
2022/01/21 10:40:44;;;;;;;;;20.33;14.67;;;;;6.23;72.11;103631.41;5103649;27;46246;-68
2022/01/21 10:43:12;;;;;;;;;20.67;19.00;;;;;6.21;72.04;103628.75;5097044;27;45494;-68
2022/01/21 10:45:53;;;;;;;;;19.00;10.33;;;;;6.18;71.61;103623.47;5102228;27;47190;-68
2022/01/21 10:48:19;;;;;;;;;32.00;21.33;;;;;5.96;72.54;103632.31;5097051;27;45412;-69
2022/01/21 10:50:44;;;;;;;;;15.33;15.00;;;;;6.06;72.72;103626.59;5102228;27;45406;-68
2022/01/21 10:53:30;;;;;;;;;27.00;21.33;;;;;5.88;72.78;103626.28;5097699;27;45548;-65
2022/01/21 10:56:10;;;;;;;;;20.67;14.67;;;;;6.15;71.83;103620.88;5102236;27;47566;-65
2022/01/21 10:58:41;;;;;;;;;19.67;17.33;;;;;6.33;71.91;103615.81;5099676;27;45314;-66
2022/01/21 11:01:17;;;;;;;;;19.00;14.33;;;;;6.53;71.34;103616.00;5101347;27;45329;-65
2022/01/21 11:04:01;;;;;;;;;20.00;16.33;;;;;6.56;70.69;103616.81;5100625;27;45404;-68
2022/01/21 11:06:56;;;;;;;;;25.67;17.67;;;;;6.70;71.02;103619.03;5102721;27;45306;-67
2022/01/21 11:09:25;;;;;;;;;17.00;15.33;;;;;6.74;69.94;103614.38;5098882;27;45399;-68
2022/01/21 11:12:10;;;;;;;;;13.67;13.67;;;;;6.64;69.95;103633.63;5101254;27;46015;-69
2022/01/21 11:14:54;;;;;;;;;16.00;16.00;;;;;6.84;70.34;103627.53;5091259;27;45558;-66
2022/01/21 11:17:19;;;;;;;;;29.67;18.67;;;;;6.96;70.03;103610.84;5095112;27;46214;-66
2022/01/21 11:20:08;;;;;;;;;23.00;18.67;;;;;6.98;69.35;103618.91;5091360;27;45875;-66
2022/01/21 11:22:55;;;;;;;;;15.00;15.00;;;;;6.83;69.54;103620.34;5099010;27;45305;-65
2022/01/21 11:25:42;;;;;;;;;21.00;15.00;;;;;6.79;70.28;103618.72;5098567;27;45450;-67
2022/01/21 11:28:12;;;;;;;;;11.67;10.67;;;;;6.73;69.62;103627.00;5095787;27;47259;-67
2022/01/21 11:30:38;;;;;;;;;16.33;12.33;;;;;6.64;69.96;103613.84;5100855;27;45316;-67
2022/01/21 11:33:04;;;;;;;;;19.00;14.00;;;;;6.51;70.02;103612.47;5095531;27;45385;-66
2022/01/21 11:35:31;;;;;;;;;13.33;11.00;;;;;6.51;70.32;103612.47;5102289;27;45422;-67
2022/01/21 11:38:04;;;;;;;;;12.00;11.00;;;;;6.65;69.95;103604.78;5096451;27;46136;-67
2022/01/21 11:40:31;;;;;;;;;22.00;17.00;;;;;6.57;69.83;103606.88;5102333;27;45450;-67
2022/01/21 11:42:57;;;;;;;;;18.00;16.67;;;;;6.58;70.77;103608.63;5096787;27;45309;-67
2022/01/21 11:50:29;;;;;;;;;17.33;12.67;;;;;6.54;69.81;103588.06;5094254;27;45366;-67
2022/01/21 11:52:55;;;;;;;;;13.33;11.33;;;;;6.56;69.99;103591.59;5096864;27;45603;-67
2022/01/21 11:55:40;;;;;;;;;10.33;10.00;;;;;6.74;69.46;103593.66;5100555;27;45346;-67
2022/01/21 11:58:18;;;;;;;;;17.00;10.00;;;;;6.84;69.21;103591.50;5098775;27;45546;-68
2022/01/21 12:00:47;;;;;;;;;14.67;10.00;;;;;6.59;69.16;103599.59;5100849;27;45373;-67
2022/01/21 12:03:16;;;;;;;;;18.67;15.67;;;;;6.70;69.16;103600.09;5099398;27;45251;-67
2022/01/21 12:05:42;;;;;;;;;13.33;11.33;;;;;6.75;68.75;103608.94;5102493;27;45500;-68
2022/01/21 12:08:07;;;;;;;;;17.33;12.33;;;;;6.75;69.20;103603.53;5094887;27;46899;-68
2022/01/21 12:10:42;;;;;;;;;19.67;12.67;;;;;7.00;69.77;103600.84;5094590;27;45374;-67
2022/01/21 12:13:12;;;;;;;;;14.33;12.67;;;;;7.14;68.30;103603.03;5099493;27;45345;-67
2022/01/21 12:18:33;;;;;;;;;19.00;13.00;;;;;7.21;68.28;103605.44;5099526;27;45940;-67
2022/01/21 12:21:04;;;;;;;;;16.00;15.00;;;;;7.20;67.63;103591.97;5100199;27;45482;-67
2022/01/21 12:23:42;;;;;;;;;15.00;14.00;;;;;7.40;67.78;103587.56;5095617;27;45398;-67
2022/01/21 12:26:23;;;;;;;;;23.67;12.00;;;;;7.44;67.30;103593.75;5101280;27;45284;-67
2022/01/21 12:28:58;;;;;;;;;13.33;12.00;;;;;7.08;67.80;103587.03;5092070;27;45407;-67